sensor_id;sensor_type;location;lat;lon;timestamp;temperature;humidity
22968;DHT22;11650;48.106;-1.696;2023-02-01T00:01:43;8.90;99.90
22968;DHT22;11650;48.106;-1.696;2023-02-01T00:04:09;8.90;99.90
22968;DHT22;11650;48.106;-1.696;2023-02-01T00:06:35;8.90;99.90
22968;DHT22;11650;48.106;-1.696;2023-02-01T00:09:00;8.90;99.90
22968;DHT22;11650;48.106;-1.696;2023-02-01T00:11:26;8.90;99.90
22968;DHT22;11650;48.106;-1.696;2023-02-01T00:13:52;8.90;99.90
22968;DHT22;11650;48.106;-1.696;2023-02-01T00:16:20;8.90;99.90
22968;DHT22;11650;48.106;-1.696;2023-02-01T00:18:49;8.90;99.90
22968;DHT22;11650;48.106;-1.696;2023-02-01T00:21:17;8.90;99.90
22968;DHT22;11650;48.106;-1.696;2023-02-01T00:23:43;8.90;99.90
22968;DHT22;11650;48.106;-1.696;2023-02-01T00:26:16;8.90;99.90
22968;DHT22;11650;48.106;-1.696;2023-02-01T00:28:42;8.90;99.90
22968;DHT22;11650;48.106;-1.696;2023-02-01T00:31:08;8.90;99.90
22968;DHT22;11650;48.106;-1.696;2023-02-01T00:33:34;8.80;99.90
22968;DHT22;11650;48.106;-1.696;2023-02-01T00:36:02;8.90;99.90
22968;DHT22;11650;48.106;-1.696;2023-02-01T00:38:29;8.80;99.90
22968;DHT22;11650;48.106;-1.696;2023-02-01T00:41:01;8.80;99.90
22968;DHT22;11650;48.106;-1.696;2023-02-01T00:43:27;8.80;99.90
22968;DHT22;11650;48.106;-1.696;2023-02-01T00:45:52;8.80;99.90
22968;DHT22;11650;48.106;-1.696;2023-02-01T00:48:18;8.80;99.90
22968;DHT22;11650;48.106;-1.696;2023-02-01T00:50:44;8.70;99.90
22968;DHT22;11650;48.106;-1.696;2023-02-01T00:53:10;8.70;99.90
22968;DHT22;11650;48.106;-1.696;2023-02-01T00:55:36;8.70;99.90
22968;DHT22;11650;48.106;-1.696;2023-02-01T00:58:02;8.70;99.90
22968;DHT22;11650;48.106;-1.696;2023-02-01T01:00:28;8.70;99.90
22968;DHT22;11650;48.106;-1.696;2023-02-01T01:02:54;8.60;99.90
22968;DHT22;11650;48.106;-1.696;2023-02-01T01:05:21;8.60;99.90
22968;DHT22;11650;48.106;-1.696;2023-02-01T01:07:46;8.60;99.90
22968;DHT22;11650;48.106;-1.696;2023-02-01T01:10:12;8.50;99.90
22968;DHT22;11650;48.106;-1.696;2023-02-01T01:12:38;8.50;99.90
22968;DHT22;11650;48.106;-1.696;2023-02-01T01:15:04;8.50;99.90
22968;DHT22;11650;48.106;-1.696;2023-02-01T01:17:31;8.50;99.90
22968;DHT22;11650;48.106;-1.696;2023-02-01T01:19:57;8.50;99.90
22968;DHT22;11650;48.106;-1.696;2023-02-01T01:22:22;8.50;99.90
22968;DHT22;11650;48.106;-1.696;2023-02-01T01:24:48;8.40;99.90
22968;DHT22;11650;48.106;-1.696;2023-02-01T01:27:14;8.50;99.90
22968;DHT22;11650;48.106;-1.696;2023-02-01T01:29:40;8.40;99.90
22968;DHT22;11650;48.106;-1.696;2023-02-01T01:32:05;8.50;99.90
22968;DHT22;11650;48.106;-1.696;2023-02-01T01:34:31;8.50;99.90
22968;DHT22;11650;48.106;-1.696;2023-02-01T01:36:57;8.50;99.90
22968;DHT22;11650;48.106;-1.696;2023-02-01T01:39:22;8.50;99.90
22968;DHT22;11650;48.106;-1.696;2023-02-01T01:41:48;8.50;99.90
22968;DHT22;11650;48.106;-1.696;2023-02-01T01:47:17;8.50;99.90
22968;DHT22;11650;48.106;-1.696;2023-02-01T01:49:43;8.50;99.90
22968;DHT22;11650;48.106;-1.696;2023-02-01T01:52:09;8.50;99.90
22968;DHT22;11650;48.106;-1.696;2023-02-01T01:54:39;8.60;99.90
22968;DHT22;11650;48.106;-1.696;2023-02-01T01:57:12;8.50;99.90
22968;DHT22;11650;48.106;-1.696;2023-02-01T01:59:40;8.50;99.90
22968;DHT22;11650;48.106;-1.696;2023-02-01T02:02:07;8.50;99.90
22968;DHT22;11650;48.106;-1.696;2023-02-01T02:04:34;8.50;99.90
22968;DHT22;11650;48.106;-1.696;2023-02-01T02:07:13;8.60;99.90
22968;DHT22;11650;48.106;-1.696;2023-02-01T02:09:40;8.60;99.90
22968;DHT22;11650;48.106;-1.696;2023-02-01T02:12:05;8.60;99.90
22968;DHT22;11650;48.106;-1.696;2023-02-01T02:14:31;8.60;99.90
22968;DHT22;11650;48.106;-1.696;2023-02-01T02:23:41;8.50;99.90
22968;DHT22;11650;48.106;-1.696;2023-02-01T02:26:09;8.50;99.90
22968;DHT22;11650;48.106;-1.696;2023-02-01T02:33:45;8.50;99.90
22968;DHT22;11650;48.106;-1.696;2023-02-01T02:41:59;8.50;99.90
22968;DHT22;11650;48.106;-1.696;2023-02-01T02:53:57;8.50;99.90
22968;DHT22;11650;48.106;-1.696;2023-02-01T02:56:44;8.50;99.90
22968;DHT22;11650;48.106;-1.696;2023-02-01T02:59:29;8.50;99.90
22968;DHT22;11650;48.106;-1.696;2023-02-01T03:02:15;8.50;99.90
22968;DHT22;11650;48.106;-1.696;2023-02-01T03:05:01;8.50;99.90
22968;DHT22;11650;48.106;-1.696;2023-02-01T03:10:16;8.50;99.90
22968;DHT22;11650;48.106;-1.696;2023-02-01T03:12:43;8.50;99.90
22968;DHT22;11650;48.106;-1.696;2023-02-01T03:15:32;8.50;99.90
22968;DHT22;11650;48.106;-1.696;2023-02-01T03:18:01;8.50;99.90
22968;DHT22;11650;48.106;-1.696;2023-02-01T03:20:30;8.50;99.90
22968;DHT22;11650;48.106;-1.696;2023-02-01T03:22:57;8.50;99.90
22968;DHT22;11650;48.106;-1.696;2023-02-01T03:25:30;8.40;99.90
22968;DHT22;11650;48.106;-1.696;2023-02-01T03:28:06;8.40;99.90
22968;DHT22;11650;48.106;-1.696;2023-02-01T03:30:40;8.50;99.90
22968;DHT22;11650;48.106;-1.696;2023-02-01T03:33:11;8.40;99.90
22968;DHT22;11650;48.106;-1.696;2023-02-01T03:36:03;8.40;99.90
22968;DHT22;11650;48.106;-1.696;2023-02-01T03:38:52;8.40;99.90
22968;DHT22;11650;48.106;-1.696;2023-02-01T03:41:57;8.40;99.90
22968;DHT22;11650;48.106;-1.696;2023-02-01T03:44:26;8.40;99.90
22968;DHT22;11650;48.106;-1.696;2023-02-01T03:47:22;8.40;99.90
22968;DHT22;11650;48.106;-1.696;2023-02-01T03:49:49;8.40;99.90
22968;DHT22;11650;48.106;-1.696;2023-02-01T03:52:52;8.40;99.90
22968;DHT22;11650;48.106;-1.696;2023-02-01T03:55:21;8.40;99.90
22968;DHT22;11650;48.106;-1.696;2023-02-01T03:58:06;8.40;99.90
22968;DHT22;11650;48.106;-1.696;2023-02-01T04:00:33;8.40;99.90
22968;DHT22;11650;48.106;-1.696;2023-02-01T04:02:58;8.40;99.90
22968;DHT22;11650;48.106;-1.696;2023-02-01T04:05:24;8.40;99.90
22968;DHT22;11650;48.106;-1.696;2023-02-01T04:07:50;8.40;99.90
22968;DHT22;11650;48.106;-1.696;2023-02-01T04:10:16;8.40;99.90
22968;DHT22;11650;48.106;-1.696;2023-02-01T04:12:42;8.40;99.90
22968;DHT22;11650;48.106;-1.696;2023-02-01T04:15:08;8.40;99.90
22968;DHT22;11650;48.106;-1.696;2023-02-01T04:17:34;8.40;99.90
22968;DHT22;11650;48.106;-1.696;2023-02-01T04:19:59;8.40;99.90
22968;DHT22;11650;48.106;-1.696;2023-02-01T04:22:25;8.40;99.90
22968;DHT22;11650;48.106;-1.696;2023-02-01T04:24:51;8.40;99.90
22968;DHT22;11650;48.106;-1.696;2023-02-01T04:27:16;8.40;99.90
22968;DHT22;11650;48.106;-1.696;2023-02-01T04:29:42;8.30;99.90
22968;DHT22;11650;48.106;-1.696;2023-02-01T04:32:08;8.40;99.90
22968;DHT22;11650;48.106;-1.696;2023-02-01T04:34:33;8.40;99.90
22968;DHT22;11650;48.106;-1.696;2023-02-01T04:36:59;8.40;99.90
22968;DHT22;11650;48.106;-1.696;2023-02-01T04:39:25;8.40;99.90
22968;DHT22;11650;48.106;-1.696;2023-02-01T04:41:50;8.40;99.90
22968;DHT22;11650;48.106;-1.696;2023-02-01T04:44:17;8.40;99.90
22968;DHT22;11650;48.106;-1.696;2023-02-01T04:46:44;8.30;99.90
22968;DHT22;11650;48.106;-1.696;2023-02-01T04:49:12;8.30;99.90
22968;DHT22;11650;48.106;-1.696;2023-02-01T04:51:38;8.30;99.90
22968;DHT22;11650;48.106;-1.696;2023-02-01T04:54:04;8.30;99.90
22968;DHT22;11650;48.106;-1.696;2023-02-01T04:56:30;8.40;99.90
22968;DHT22;11650;48.106;-1.696;2023-02-01T04:58:55;8.30;99.90
22968;DHT22;11650;48.106;-1.696;2023-02-01T05:01:22;8.30;99.90
22968;DHT22;11650;48.106;-1.696;2023-02-01T05:03:48;8.40;99.90
22968;DHT22;11650;48.106;-1.696;2023-02-01T05:06:13;8.30;99.90
22968;DHT22;11650;48.106;-1.696;2023-02-01T05:08:39;8.40;99.90
22968;DHT22;11650;48.106;-1.696;2023-02-01T05:11:05;8.40;99.90
22968;DHT22;11650;48.106;-1.696;2023-02-01T05:13:31;8.40;99.90
22968;DHT22;11650;48.106;-1.696;2023-02-01T05:16:15;8.40;99.90
22968;DHT22;11650;48.106;-1.696;2023-02-01T05:18:41;8.40;99.90
22968;DHT22;11650;48.106;-1.696;2023-02-01T05:21:06;8.40;99.90
22968;DHT22;11650;48.106;-1.696;2023-02-01T05:23:32;8.40;99.90
22968;DHT22;11650;48.106;-1.696;2023-02-01T05:26:18;8.30;99.90
22968;DHT22;11650;48.106;-1.696;2023-02-01T05:28:43;8.40;99.90
22968;DHT22;11650;48.106;-1.696;2023-02-01T05:31:10;8.40;99.90
22968;DHT22;11650;48.106;-1.696;2023-02-01T05:33:35;8.40;99.90
22968;DHT22;11650;48.106;-1.696;2023-02-01T05:36:01;8.40;99.90
22968;DHT22;11650;48.106;-1.696;2023-02-01T05:38:27;8.30;99.90
22968;DHT22;11650;48.106;-1.696;2023-02-01T05:40:52;8.30;99.90
22968;DHT22;11650;48.106;-1.696;2023-02-01T05:43:18;8.30;99.90
22968;DHT22;11650;48.106;-1.696;2023-02-01T05:45:43;8.30;99.90
22968;DHT22;11650;48.106;-1.696;2023-02-01T05:48:09;8.30;99.90
22968;DHT22;11650;48.106;-1.696;2023-02-01T05:50:35;8.30;99.90
22968;DHT22;11650;48.106;-1.696;2023-02-01T05:53:00;8.30;99.90
22968;DHT22;11650;48.106;-1.696;2023-02-01T05:55:26;8.30;99.90
22968;DHT22;11650;48.106;-1.696;2023-02-01T05:57:51;8.30;99.90
22968;DHT22;11650;48.106;-1.696;2023-02-01T06:00:17;8.40;99.90
22968;DHT22;11650;48.106;-1.696;2023-02-01T06:02:43;8.40;99.90
22968;DHT22;11650;48.106;-1.696;2023-02-01T06:05:09;8.40;99.90
22968;DHT22;11650;48.106;-1.696;2023-02-01T06:07:34;8.40;99.90
22968;DHT22;11650;48.106;-1.696;2023-02-01T06:10:00;8.30;99.90
22968;DHT22;11650;48.106;-1.696;2023-02-01T06:12:26;8.30;99.90
22968;DHT22;11650;48.106;-1.696;2023-02-01T06:14:53;8.30;99.90
22968;DHT22;11650;48.106;-1.696;2023-02-01T06:17:19;8.40;99.90
22968;DHT22;11650;48.106;-1.696;2023-02-01T06:19:44;8.40;99.90
22968;DHT22;11650;48.106;-1.696;2023-02-01T06:22:10;8.30;99.90
22968;DHT22;11650;48.106;-1.696;2023-02-01T06:24:36;8.30;99.90
22968;DHT22;11650;48.106;-1.696;2023-02-01T06:27:01;8.30;99.90
22968;DHT22;11650;48.106;-1.696;2023-02-01T06:29:27;8.40;99.90
22968;DHT22;11650;48.106;-1.696;2023-02-01T06:31:53;8.40;99.90
22968;DHT22;11650;48.106;-1.696;2023-02-01T06:34:18;8.40;99.90
22968;DHT22;11650;48.106;-1.696;2023-02-01T06:36:44;8.30;99.90
22968;DHT22;11650;48.106;-1.696;2023-02-01T06:39:10;8.30;99.90
22968;DHT22;11650;48.106;-1.696;2023-02-01T06:41:38;8.40;99.90
22968;DHT22;11650;48.106;-1.696;2023-02-01T06:44:04;8.30;99.90
22968;DHT22;11650;48.106;-1.696;2023-02-01T06:46:30;8.40;99.90
22968;DHT22;11650;48.106;-1.696;2023-02-01T06:48:55;8.40;99.90
22968;DHT22;11650;48.106;-1.696;2023-02-01T06:51:26;8.30;99.90
22968;DHT22;11650;48.106;-1.696;2023-02-01T06:53:52;8.30;99.90
22968;DHT22;11650;48.106;-1.696;2023-02-01T06:56:18;8.30;99.90
22968;DHT22;11650;48.106;-1.696;2023-02-01T06:58:44;8.30;99.90
22968;DHT22;11650;48.106;-1.696;2023-02-01T07:01:10;8.40;99.90
22968;DHT22;11650;48.106;-1.696;2023-02-01T07:03:36;8.40;99.90
22968;DHT22;11650;48.106;-1.696;2023-02-01T07:06:02;8.40;99.90
22968;DHT22;11650;48.106;-1.696;2023-02-01T07:08:29;8.40;99.90
22968;DHT22;11650;48.106;-1.696;2023-02-01T07:10:55;8.30;99.90
22968;DHT22;11650;48.106;-1.696;2023-02-01T07:13:21;8.30;99.90
22968;DHT22;11650;48.106;-1.696;2023-02-01T07:15:47;8.30;99.90
22968;DHT22;11650;48.106;-1.696;2023-02-01T07:18:16;8.30;99.90
22968;DHT22;11650;48.106;-1.696;2023-02-01T07:20:42;8.30;99.90
22968;DHT22;11650;48.106;-1.696;2023-02-01T07:23:10;8.30;99.90
22968;DHT22;11650;48.106;-1.696;2023-02-01T07:25:36;8.20;99.90
22968;DHT22;11650;48.106;-1.696;2023-02-01T07:28:02;8.20;99.90
22968;DHT22;11650;48.106;-1.696;2023-02-01T07:30:28;8.20;99.90
22968;DHT22;11650;48.106;-1.696;2023-02-01T07:32:53;8.20;99.90
22968;DHT22;11650;48.106;-1.696;2023-02-01T07:35:19;8.20;99.90
22968;DHT22;11650;48.106;-1.696;2023-02-01T07:37:44;8.20;99.90
22968;DHT22;11650;48.106;-1.696;2023-02-01T07:40:11;8.20;99.90
22968;DHT22;11650;48.106;-1.696;2023-02-01T07:42:36;8.20;99.90
22968;DHT22;11650;48.106;-1.696;2023-02-01T07:45:03;8.20;99.90
22968;DHT22;11650;48.106;-1.696;2023-02-01T07:47:29;8.30;99.90
22968;DHT22;11650;48.106;-1.696;2023-02-01T07:49:54;8.20;99.90
22968;DHT22;11650;48.106;-1.696;2023-02-01T07:52:20;8.30;99.90
22968;DHT22;11650;48.106;-1.696;2023-02-01T07:54:45;8.30;99.90
22968;DHT22;11650;48.106;-1.696;2023-02-01T07:57:11;8.30;99.90
22968;DHT22;11650;48.106;-1.696;2023-02-01T07:59:37;8.30;99.90
22968;DHT22;11650;48.106;-1.696;2023-02-01T08:02:25;8.30;99.90
22968;DHT22;11650;48.106;-1.696;2023-02-01T08:04:51;8.30;99.90
22968;DHT22;11650;48.106;-1.696;2023-02-01T08:07:16;8.30;99.90
22968;DHT22;11650;48.106;-1.696;2023-02-01T08:09:42;8.30;99.90
22968;DHT22;11650;48.106;-1.696;2023-02-01T08:12:08;8.40;99.90
22968;DHT22;11650;48.106;-1.696;2023-02-01T08:14:33;8.40;99.90
22968;DHT22;11650;48.106;-1.696;2023-02-01T08:16:59;8.40;99.90
22968;DHT22;11650;48.106;-1.696;2023-02-01T08:19:24;8.40;99.90
22968;DHT22;11650;48.106;-1.696;2023-02-01T08:21:50;8.40;99.90
22968;DHT22;11650;48.106;-1.696;2023-02-01T08:24:16;8.50;99.90
22968;DHT22;11650;48.106;-1.696;2023-02-01T08:26:41;8.50;99.90
22968;DHT22;11650;48.106;-1.696;2023-02-01T08:29:08;8.50;99.90
22968;DHT22;11650;48.106;-1.696;2023-02-01T08:31:34;8.50;99.90
22968;DHT22;11650;48.106;-1.696;2023-02-01T08:34:01;8.40;99.90
22968;DHT22;11650;48.106;-1.696;2023-02-01T08:36:30;8.50;99.90
22968;DHT22;11650;48.106;-1.696;2023-02-01T08:38:56;8.50;99.90
22968;DHT22;11650;48.106;-1.696;2023-02-01T08:41:25;8.50;99.90
22968;DHT22;11650;48.106;-1.696;2023-02-01T08:43:51;8.60;99.90
22968;DHT22;11650;48.106;-1.696;2023-02-01T08:46:18;8.60;99.90
22968;DHT22;11650;48.106;-1.696;2023-02-01T08:48:46;8.50;99.90
22968;DHT22;11650;48.106;-1.696;2023-02-01T08:51:14;8.60;99.90
22968;DHT22;11650;48.106;-1.696;2023-02-01T08:53:41;8.60;99.90
22968;DHT22;11650;48.106;-1.696;2023-02-01T08:56:07;8.60;99.90
22968;DHT22;11650;48.106;-1.696;2023-02-01T08:58:33;8.70;99.90
22968;DHT22;11650;48.106;-1.696;2023-02-01T09:01:07;8.80;99.90
22968;DHT22;11650;48.106;-1.696;2023-02-01T09:03:34;8.80;99.90
22968;DHT22;11650;48.106;-1.696;2023-02-01T09:06:01;9.00;99.90
22968;DHT22;11650;48.106;-1.696;2023-02-01T09:08:27;9.00;99.90
22968;DHT22;11650;48.106;-1.696;2023-02-01T09:10:52;9.00;99.90
22968;DHT22;11650;48.106;-1.696;2023-02-01T09:13:18;9.00;99.90
22968;DHT22;11650;48.106;-1.696;2023-02-01T09:15:43;9.00;99.90
22968;DHT22;11650;48.106;-1.696;2023-02-01T09:18:09;9.00;99.90
22968;DHT22;11650;48.106;-1.696;2023-02-01T09:20:36;9.00;99.90
22968;DHT22;11650;48.106;-1.696;2023-02-01T09:23:04;8.90;99.90
22968;DHT22;11650;48.106;-1.696;2023-02-01T09:25:31;8.90;99.90
22968;DHT22;11650;48.106;-1.696;2023-02-01T09:27:57;9.00;99.90
22968;DHT22;11650;48.106;-1.696;2023-02-01T09:32:49;9.10;99.90
22968;DHT22;11650;48.106;-1.696;2023-02-01T09:35:14;9.20;99.90
22968;DHT22;11650;48.106;-1.696;2023-02-01T09:37:40;9.20;99.90
22968;DHT22;11650;48.106;-1.696;2023-02-01T09:40:06;9.30;99.90
22968;DHT22;11650;48.106;-1.696;2023-02-01T09:48:31;9.30;99.90
22968;DHT22;11650;48.106;-1.696;2023-02-01T09:50:59;9.40;99.90
22968;DHT22;11650;48.106;-1.696;2023-02-01T09:53:27;9.50;99.90
22968;DHT22;11650;48.106;-1.696;2023-02-01T09:56:05;9.50;99.90
22968;DHT22;11650;48.106;-1.696;2023-02-01T09:58:36;9.70;99.90
22968;DHT22;11650;48.106;-1.696;2023-02-01T10:01:08;9.60;99.90
22968;DHT22;11650;48.106;-1.696;2023-02-01T10:03:35;9.70;99.90
22968;DHT22;11650;48.106;-1.696;2023-02-01T10:16:58;9.80;99.90
22968;DHT22;11650;48.106;-1.696;2023-02-01T10:22:07;10.00;99.90
22968;DHT22;11650;48.106;-1.696;2023-02-01T10:24:53;10.20;99.90
22968;DHT22;11650;48.106;-1.696;2023-02-01T10:27:37;10.40;99.90
22968;DHT22;11650;48.106;-1.696;2023-02-01T10:30:15;10.30;99.90
22968;DHT22;11650;48.106;-1.696;2023-02-01T10:32:43;10.20;99.90
22968;DHT22;11650;48.106;-1.696;2023-02-01T10:35:28;10.20;99.90
22968;DHT22;11650;48.106;-1.696;2023-02-01T10:37:58;10.10;99.90
22968;DHT22;11650;48.106;-1.696;2023-02-01T10:40:26;10.20;99.90
22968;DHT22;11650;48.106;-1.696;2023-02-01T10:43:02;10.10;99.90
22968;DHT22;11650;48.106;-1.696;2023-02-01T10:45:30;10.20;99.90
22968;DHT22;11650;48.106;-1.696;2023-02-01T10:47:58;10.20;99.90
22968;DHT22;11650;48.106;-1.696;2023-02-01T10:50:34;10.30;99.90
22968;DHT22;11650;48.106;-1.696;2023-02-01T10:53:34;10.20;99.90
22968;DHT22;11650;48.106;-1.696;2023-02-01T10:56:07;10.30;99.90
22968;DHT22;11650;48.106;-1.696;2023-02-01T10:58:33;10.30;99.90
22968;DHT22;11650;48.106;-1.696;2023-02-01T11:01:09;10.10;99.90
22968;DHT22;11650;48.106;-1.696;2023-02-01T11:03:44;10.20;99.90
22968;DHT22;11650;48.106;-1.696;2023-02-01T11:06:24;10.30;99.90
22968;DHT22;11650;48.106;-1.696;2023-02-01T11:14:20;10.30;99.90
22968;DHT22;11650;48.106;-1.696;2023-02-01T11:19:39;10.20;99.90
22968;DHT22;11650;48.106;-1.696;2023-02-01T11:22:09;10.40;99.90
22968;DHT22;11650;48.106;-1.696;2023-02-01T11:24:37;10.40;99.90
22968;DHT22;11650;48.106;-1.696;2023-02-01T11:27:15;10.40;99.90
22968;DHT22;11650;48.106;-1.696;2023-02-01T11:29:45;10.40;99.90
22968;DHT22;11650;48.106;-1.696;2023-02-01T11:32:13;10.50;99.90
22968;DHT22;11650;48.106;-1.696;2023-02-01T11:34:46;10.50;99.90
22968;DHT22;11650;48.106;-1.696;2023-02-01T11:37:29;10.50;99.90
22968;DHT22;11650;48.106;-1.696;2023-02-01T11:39:58;10.50;99.90
22968;DHT22;11650;48.106;-1.696;2023-02-01T11:42:24;10.70;99.90
22968;DHT22;11650;48.106;-1.696;2023-02-01T11:44:50;10.80;99.90
22968;DHT22;11650;48.106;-1.696;2023-02-01T11:47:28;10.70;99.90
22968;DHT22;11650;48.106;-1.696;2023-02-01T11:49:56;10.70;99.90
22968;DHT22;11650;48.106;-1.696;2023-02-01T12:00:51;11.20;99.90
22968;DHT22;11650;48.106;-1.696;2023-02-01T12:08:51;11.10;99.90
22968;DHT22;11650;48.106;-1.696;2023-02-01T12:14:36;11.70;99.90
22968;DHT22;11650;48.106;-1.696;2023-02-01T12:28:30;12.10;99.90
22968;DHT22;11650;48.106;-1.696;2023-02-01T12:44:50;11.20;99.90
22968;DHT22;11650;48.106;-1.696;2023-02-01T12:47:33;11.20;99.90
22968;DHT22;11650;48.106;-1.696;2023-02-01T12:50:18;11.10;99.90
22968;DHT22;11650;48.106;-1.696;2023-02-01T12:52:49;11.20;99.90
22968;DHT22;11650;48.106;-1.696;2023-02-01T12:58:16;11.20;99.90
22968;DHT22;11650;48.106;-1.696;2023-02-01T13:00:54;11.20;99.90
22968;DHT22;11650;48.106;-1.696;2023-02-01T13:03:40;11.20;99.90
22968;DHT22;11650;48.106;-1.696;2023-02-01T13:06:17;11.10;99.90
22968;DHT22;11650;48.106;-1.696;2023-02-01T13:11:38;11.10;99.90
22968;DHT22;11650;48.106;-1.696;2023-02-01T13:17:10;11.20;99.90
22968;DHT22;11650;48.106;-1.696;2023-02-01T13:22:37;11.40;99.90
22968;DHT22;11650;48.106;-1.696;2023-02-01T13:27:35;11.10;99.90
22968;DHT22;11650;48.106;-1.696;2023-02-01T13:30:24;11.10;99.90
22968;DHT22;11650;48.106;-1.696;2023-02-01T13:33:01;10.90;99.90
22968;DHT22;11650;48.106;-1.696;2023-02-01T13:41:11;10.70;99.90
22968;DHT22;11650;48.106;-1.696;2023-02-01T13:43:40;10.70;99.90
22968;DHT22;11650;48.106;-1.696;2023-02-01T13:46:09;10.60;99.90
22968;DHT22;11650;48.106;-1.696;2023-02-01T13:48:56;10.50;99.90
22968;DHT22;11650;48.106;-1.696;2023-02-01T13:54:07;10.50;99.90
22968;DHT22;11650;48.106;-1.696;2023-02-01T13:56:47;10.40;99.90
22968;DHT22;11650;48.106;-1.696;2023-02-01T14:05:06;10.40;99.90
22968;DHT22;11650;48.106;-1.696;2023-02-01T14:07:33;10.40;99.90
22968;DHT22;11650;48.106;-1.696;2023-02-01T14:13:04;10.30;99.90
22968;DHT22;11650;48.106;-1.696;2023-02-01T14:15:30;10.30;99.90
22968;DHT22;11650;48.106;-1.696;2023-02-01T14:17:56;10.30;99.90
22968;DHT22;11650;48.106;-1.696;2023-02-01T14:23:20;10.20;99.90
22968;DHT22;11650;48.106;-1.696;2023-02-01T14:26:02;10.20;99.90
22968;DHT22;11650;48.106;-1.696;2023-02-01T14:28:29;10.20;99.90
22968;DHT22;11650;48.106;-1.696;2023-02-01T14:30:57;10.10;99.90
22968;DHT22;11650;48.106;-1.696;2023-02-01T14:33:25;10.10;99.90
22968;DHT22;11650;48.106;-1.696;2023-02-01T14:36:04;10.10;99.90
22968;DHT22;11650;48.106;-1.696;2023-02-01T14:38:32;10.20;99.90
22968;DHT22;11650;48.106;-1.696;2023-02-01T14:43:50;10.40;99.90
22968;DHT22;11650;48.106;-1.696;2023-02-01T14:46:16;10.50;99.90
22968;DHT22;11650;48.106;-1.696;2023-02-01T14:48:43;10.60;99.90
22968;DHT22;11650;48.106;-1.696;2023-02-01T14:51:14;10.70;99.90
22968;DHT22;11650;48.106;-1.696;2023-02-01T14:53:41;10.70;99.90
22968;DHT22;11650;48.106;-1.696;2023-02-01T14:56:13;10.60;99.90
22968;DHT22;11650;48.106;-1.696;2023-02-01T14:58:41;10.60;99.90
22968;DHT22;11650;48.106;-1.696;2023-02-01T15:01:18;10.50;99.90
22968;DHT22;11650;48.106;-1.696;2023-02-01T15:04:12;10.50;99.90
22968;DHT22;11650;48.106;-1.696;2023-02-01T15:06:46;10.50;99.90
22968;DHT22;11650;48.106;-1.696;2023-02-01T15:09:28;10.50;99.90
22968;DHT22;11650;48.106;-1.696;2023-02-01T15:12:04;10.60;99.90
22968;DHT22;11650;48.106;-1.696;2023-02-01T15:14:38;10.50;99.90
22968;DHT22;11650;48.106;-1.696;2023-02-01T15:17:23;10.60;99.90
22968;DHT22;11650;48.106;-1.696;2023-02-01T15:19:59;10.50;99.90
22968;DHT22;11650;48.106;-1.696;2023-02-01T15:22:27;10.50;99.90
22968;DHT22;11650;48.106;-1.696;2023-02-01T15:24:57;10.60;99.90
22968;DHT22;11650;48.106;-1.696;2023-02-01T15:27:24;10.50;99.90
22968;DHT22;11650;48.106;-1.696;2023-02-01T15:29:50;10.50;99.90
22968;DHT22;11650;48.106;-1.696;2023-02-01T15:32:30;10.50;99.90
22968;DHT22;11650;48.106;-1.696;2023-02-01T15:34:57;10.50;99.90
22968;DHT22;11650;48.106;-1.696;2023-02-01T15:37:23;10.40;99.90
22968;DHT22;11650;48.106;-1.696;2023-02-01T15:42:39;10.40;99.90
22968;DHT22;11650;48.106;-1.696;2023-02-01T15:45:16;10.40;99.90
22968;DHT22;11650;48.106;-1.696;2023-02-01T15:47:49;10.40;99.90
22968;DHT22;11650;48.106;-1.696;2023-02-01T15:50:20;10.40;99.90
22968;DHT22;11650;48.106;-1.696;2023-02-01T15:52:51;10.40;99.90
22968;DHT22;11650;48.106;-1.696;2023-02-01T15:55:29;10.40;99.90
22968;DHT22;11650;48.106;-1.696;2023-02-01T15:57:58;10.40;99.90
22968;DHT22;11650;48.106;-1.696;2023-02-01T16:00:26;10.30;99.90
22968;DHT22;11650;48.106;-1.696;2023-02-01T16:02:58;10.40;99.90
22968;DHT22;11650;48.106;-1.696;2023-02-01T16:08:16;10.40;99.90
22968;DHT22;11650;48.106;-1.696;2023-02-01T16:10:45;10.40;99.90
22968;DHT22;11650;48.106;-1.696;2023-02-01T16:13:12;10.30;99.90
22968;DHT22;11650;48.106;-1.696;2023-02-01T16:15:38;10.30;99.90
22968;DHT22;11650;48.106;-1.696;2023-02-01T16:18:04;10.30;99.90
22968;DHT22;11650;48.106;-1.696;2023-02-01T16:20:32;10.30;99.90
22968;DHT22;11650;48.106;-1.696;2023-02-01T16:22:58;10.20;99.90
22968;DHT22;11650;48.106;-1.696;2023-02-01T16:25:24;10.20;99.90
22968;DHT22;11650;48.106;-1.696;2023-02-01T16:27:49;10.20;99.90
22968;DHT22;11650;48.106;-1.696;2023-02-01T16:30:15;10.20;99.90
22968;DHT22;11650;48.106;-1.696;2023-02-01T16:32:44;10.10;99.90
22968;DHT22;11650;48.106;-1.696;2023-02-01T16:35:22;10.10;99.90
22968;DHT22;11650;48.106;-1.696;2023-02-01T16:37:48;10.20;99.90
22968;DHT22;11650;48.106;-1.696;2023-02-01T16:40:15;10.10;99.90
22968;DHT22;11650;48.106;-1.696;2023-02-01T16:42:41;10.10;99.90
22968;DHT22;11650;48.106;-1.696;2023-02-01T16:45:07;10.10;99.90
22968;DHT22;11650;48.106;-1.696;2023-02-01T16:47:36;10.10;99.90
22968;DHT22;11650;48.106;-1.696;2023-02-01T16:50:03;10.00;99.90
22968;DHT22;11650;48.106;-1.696;2023-02-01T16:52:29;10.00;99.90
22968;DHT22;11650;48.106;-1.696;2023-02-01T16:54:55;10.00;99.90
22968;DHT22;11650;48.106;-1.696;2023-02-01T16:57:21;10.00;99.90
22968;DHT22;11650;48.106;-1.696;2023-02-01T16:59:51;9.90;99.90
22968;DHT22;11650;48.106;-1.696;2023-02-01T17:02:19;9.90;99.90
22968;DHT22;11650;48.106;-1.696;2023-02-01T17:04:45;9.90;99.90
22968;DHT22;11650;48.106;-1.696;2023-02-01T17:07:18;9.90;99.90
22968;DHT22;11650;48.106;-1.696;2023-02-01T17:09:45;9.90;99.90
22968;DHT22;11650;48.106;-1.696;2023-02-01T17:12:30;9.80;99.90
22968;DHT22;11650;48.106;-1.696;2023-02-01T17:14:57;9.80;99.90
22968;DHT22;11650;48.106;-1.696;2023-02-01T17:17:27;9.80;99.90
22968;DHT22;11650;48.106;-1.696;2023-02-01T17:19:55;9.80;99.90
22968;DHT22;11650;48.106;-1.696;2023-02-01T17:22:22;9.80;99.90
22968;DHT22;11650;48.106;-1.696;2023-02-01T17:24:48;9.80;99.90
22968;DHT22;11650;48.106;-1.696;2023-02-01T17:27:16;9.80;99.90
22968;DHT22;11650;48.106;-1.696;2023-02-01T17:29:41;9.80;99.90
22968;DHT22;11650;48.106;-1.696;2023-02-01T17:32:21;9.80;99.90
22968;DHT22;11650;48.106;-1.696;2023-02-01T17:34:47;9.80;99.90
22968;DHT22;11650;48.106;-1.696;2023-02-01T17:37:28;9.80;99.90
22968;DHT22;11650;48.106;-1.696;2023-02-01T17:39:54;9.80;99.90
22968;DHT22;11650;48.106;-1.696;2023-02-01T17:42:20;9.80;99.90
22968;DHT22;11650;48.106;-1.696;2023-02-01T17:44:46;9.70;99.90
22968;DHT22;11650;48.106;-1.696;2023-02-01T17:47:12;9.80;99.90
22968;DHT22;11650;48.106;-1.696;2023-02-01T17:49:37;9.70;99.90
22968;DHT22;11650;48.106;-1.696;2023-02-01T17:52:05;9.70;99.90
22968;DHT22;11650;48.106;-1.696;2023-02-01T17:54:31;9.70;99.90
22968;DHT22;11650;48.106;-1.696;2023-02-01T17:56:56;9.70;99.90
22968;DHT22;11650;48.106;-1.696;2023-02-01T17:59:28;9.70;99.90
22968;DHT22;11650;48.106;-1.696;2023-02-01T18:01:53;9.70;99.90
22968;DHT22;11650;48.106;-1.696;2023-02-01T18:04:25;9.70;99.90
22968;DHT22;11650;48.106;-1.696;2023-02-01T18:06:50;9.70;99.90